Time;durP1;ratioP1;P1;durP2;ratioP2;P2;SDS_P1;SDS_P2;PMS_P1;PMS_P2;Temp;Humidity;BMP_temperature;BMP_pressure;BME280_temperature;BME280_humidity;BME280_pressure;Samples;Min_cycle;Max_cycle;Signal;HPM_P1;HPM_P2
2022/02/18 00:01:01;;;;;;;9.77;0.98;;;;;;;2.67;48.29;100669.25;4969861;28;20037;-80
2022/02/18 00:03:28;;;;;;;9.27;0.73;;;;;;;3.03;47.49;100669.72;4982289;28;20038;-79
2022/02/18 00:05:54;;;;;;;8.05;0.90;;;;;;;2.68;48.81;100665.78;4981426;28;20031;-79
2022/02/18 00:08:20;;;;;;;14.13;1.05;;;;;;;2.79;48.42;100663.09;4996972;28;20131;-80
2022/02/18 00:10:46;;;;;;;13.00;1.23;;;;;;;2.88;48.07;100669.88;4982289;28;20033;-81
2022/02/18 00:13:15;;;;;;;9.73;1.48;;;;;;;3.22;46.98;100665.16;4981752;28;20035;-81
2022/02/18 00:15:40;;;;;;;11.73;0.68;;;;;;;2.83;47.92;100663.94;4984587;28;20022;-79
2022/02/18 00:18:07;;;;;;;15.82;0.95;;;;;;;3.18;47.30;100668.69;4978363;28;20403;-79
2022/02/18 00:20:34;;;;;;;15.57;1.08;;;;;;;2.89;47.92;100667.28;4982790;28;20034;-80
2022/02/18 00:23:01;;;;;;;7.97;0.77;;;;;;;3.00;47.90;100664.56;4997712;28;20041;-82
2022/02/18 00:25:27;;;;;;;12.18;1.08;;;;;;;2.85;48.17;100654.44;4978925;28;20543;-79
2022/02/18 00:27:57;;;;;;;8.30;1.25;;;;;;;2.88;48.33;100649.22;5011174;28;20034;-79
2022/02/18 00:30:24;;;;;;;3.97;0.55;;;;;;;2.77;48.79;100649.34;4991110;28;20030;-80
2022/02/18 00:32:49;;;;;;;9.45;0.85;;;;;;;2.84;48.94;100655.28;4980049;28;20408;-81
2022/02/18 00:35:19;;;;;;;21.20;1.13;;;;;;;3.08;47.89;100644.69;5004831;28;20033;-78
2022/02/18 00:37:49;;;;;;;15.00;1.23;;;;;;;2.92;48.60;100638.00;4985713;28;20532;-80
2022/02/18 00:40:16;;;;;;;6.93;0.73;;;;;;;3.00;48.43;100633.59;4984094;28;20034;-81
2022/02/18 00:42:42;;;;;;;6.47;0.57;;;;;;;3.17;48.21;100635.97;4991439;28;20742;-80
2022/02/18 00:45:08;;;;;;;7.78;1.10;;;;;;;3.21;47.85;100637.63;4969432;28;20506;-78
2022/02/18 00:47:34;;;;;;;13.80;1.83;;;;;;;2.96;48.77;100639.69;4967048;28;20056;-78
2022/02/18 00:50:00;;;;;;;17.60;1.65;;;;;;;2.61;49.55;100651.25;4984257;28;20429;-80
2022/02/18 00:52:25;;;;;;;7.68;0.85;;;;;;;3.19;48.10;100640.22;4980263;28;20062;-81
2022/02/18 00:54:52;;;;;;;13.05;1.60;;;;;;;3.03;49.11;100656.81;4982940;28;20662;-81
2022/02/18 00:57:18;;;;;;;12.63;1.15;;;;;;;3.27;48.37;100654.75;4980834;28;20042;-80
2022/02/18 00:59:44;;;;;;;12.02;2.15;;;;;;;2.92;49.76;100651.75;4985861;28;20037;-77
2022/02/18 01:02:11;;;;;;;11.20;1.27;;;;;;;3.21;48.96;100652.28;4984124;28;20053;-80
2022/02/18 01:04:37;;;;;;;13.82;0.77;;;;;;;3.06;49.55;100653.31;5001999;28;20029;-81
2022/02/18 01:07:04;;;;;;;10.82;0.93;;;;;;;3.19;49.18;100660.88;4962404;28;20129;-81
2022/02/18 01:09:30;;;;;;;10.68;1.17;;;;;;;2.85;50.27;100652.72;4981367;28;20057;-81
2022/02/18 01:11:56;;;;;;;8.40;1.33;;;;;;;2.65;51.02;100662.41;4985270;28;20460;-80
2022/02/18 01:14:22;;;;;;;9.45;1.25;;;;;;;2.80;50.94;100657.09;4979402;28;20032;-79
2022/02/18 01:16:49;;;;;;;7.15;0.77;;;;;;;2.64;51.32;100665.84;4982968;28;20052;-80
2022/02/18 01:19:15;;;;;;;8.82;0.98;;;;;;;2.51;51.46;100672.84;4983271;28;20445;-80
2022/02/18 01:21:42;;;;;;;17.08;0.95;;;;;;;2.67;51.32;100678.72;4991614;28;20847;-80
2022/02/18 01:24:07;;;;;;;14.57;1.13;;;;;;;2.34;52.27;100681.59;4989699;28;20050;-78
2022/02/18 01:26:33;;;;;;;14.90;1.35;;;;;;;2.40;52.59;100678.13;4979641;28;20113;-81
2022/02/18 01:28:59;;;;;;;8.00;1.67;;;;;;;1.64;55.12;100688.16;4979580;28;20113;-79
2022/02/18 01:31:25;;;;;;;15.07;2.10;;;;;;;2.32;53.08;100682.50;4981135;28;20396;-80
2022/02/18 01:33:53;;;;;;;17.92;0.98;;;;;;;2.28;53.37;100697.13;4996995;28;20061;-81
2022/02/18 01:36:23;;;;;;;12.45;1.27;;;;;;;1.89;55.32;100694.00;4982677;28;20026;-80
2022/02/18 01:38:52;;;;;;;19.25;1.30;;;;;;;2.20;54.05;100682.56;4987260;28;20030;-79
2022/02/18 01:41:19;;;;;;;14.60;1.23;;;;;;;2.21;54.51;100690.31;4981894;28;20115;-79
2022/02/18 01:43:57;;;;;;;15.57;1.00;;;;;;;2.32;54.01;100685.06;4978230;28;20069;-80
2022/02/18 01:46:23;;;;;;;20.33;1.27;;;;;;;2.24;54.09;100682.56;4978380;28;20041;-79
2022/02/18 01:48:49;;;;;;;12.00;1.20;;;;;;;2.09;54.87;100674.94;4977962;28;20050;-79
2022/02/18 01:51:19;;;;;;;12.40;0.93;;;;;;;2.18;54.78;100674.88;4995429;28;20035;-80
2022/02/18 01:53:46;;;;;;;14.25;2.05;;;;;;;2.19;54.38;100673.13;4981024;28;20070;-79
2022/02/18 01:56:11;;;;;;;12.90;1.83;;;;;;;1.91;55.36;100671.63;4983149;28;20484;-78
2022/02/18 01:58:38;;;;;;;10.02;1.13;;;;;;;2.11;54.95;100662.91;4983737;28;20069;-80
2022/02/18 02:01:05;;;;;;;16.13;1.00;;;;;;;2.06;54.44;100664.66;5011260;28;20063;-80
2022/02/18 02:03:31;;;;;;;7.93;2.38;;;;;;;2.46;53.95;100661.72;4982390;28;20296;-80
2022/02/18 02:05:59;;;;;;;10.50;0.88;;;;;;;2.33;54.45;100669.59;4970087;28;20034;-79
2022/02/18 02:08:27;;;;;;;11.10;0.98;;;;;;;1.87;55.69;100669.94;4983791;28;20117;-81
2022/02/18 02:10:55;;;;;;;11.45;0.77;;;;;;;2.13;54.93;100666.28;4990532;28;20034;-78
2022/02/18 02:13:32;;;;;;;14.27;1.95;;;;;;;1.67;56.51;100661.50;4986747;28;20084;-81
2022/02/18 02:16:01;;;;;;;13.57;1.20;;;;;;;2.25;54.73;100655.91;4963284;28;20025;-80
2022/02/18 02:18:26;;;;;;;7.97;0.93;;;;;;;2.02;55.99;100657.78;4982705;28;20169;-81
2022/02/18 02:20:52;;;;;;;19.35;1.60;;;;;;;1.81;56.60;100644.22;4985832;28;20068;-81
2022/02/18 02:23:18;;;;;;;13.18;2.05;;;;;;;2.03;55.73;100655.22;4994222;28;20034;-79
2022/02/18 02:25:45;;;;;;;13.95;1.35;;;;;;;1.89;56.78;100650.19;4979593;28;20049;-80
2022/02/18 02:28:19;;;;;;;18.52;1.60;;;;;;;1.68;57.30;100652.88;4981020;28;20117;-80
2022/02/18 02:30:47;;;;;;;10.25;0.82;;;;;;;2.03;56.45;100646.63;4973500;28;20045;-80
2022/02/18 02:33:13;;;;;;;17.60;0.85;;;;;;;2.05;56.36;100652.63;4986958;28;20030;-80
2022/02/18 02:35:41;;;;;;;13.05;1.58;;;;;;;2.52;54.77;100641.88;4978917;28;20494;-80
2022/02/18 02:38:07;;;;;;;16.63;1.55;;;;;;;2.47;54.83;100645.38;4988755;28;20038;-81
2022/02/18 02:40:33;;;;;;;5.05;0.60;;;;;;;1.76;56.98;100635.66;4993644;28;20046;-79
2022/02/18 02:42:59;;;;;;;11.25;0.57;;;;;;;2.43;55.35;100638.53;4986708;28;20475;-80
2022/02/18 02:45:25;;;;;;;9.07;1.58;;;;;;;2.23;55.98;100634.41;4980563;28;20037;-80
2022/02/18 02:47:52;;;;;;;20.20;1.02;;;;;;;2.40;55.54;100623.06;4983893;28;20077;-79
2022/02/18 02:50:56;;;;;;;13.38;1.30;;;;;;;2.19;56.10;100619.84;4992477;28;20046;-80
2022/02/18 02:53:25;;;;;;;12.10;1.85;;;;;;;2.33;55.61;100606.81;4973476;28;20092;-82
2022/02/18 02:55:50;;;;;;;14.18;1.00;;;;;;;1.86;57.22;100601.25;4987840;28;20064;-80
2022/02/18 02:58:17;;;;;;;5.38;1.10;;;;;;;2.31;55.73;100603.38;4982938;28;20045;-79
2022/02/18 03:00:44;;;;;;;10.77;0.63;;;;;;;2.32;55.74;100597.38;4964997;28;20026;-80
2022/02/18 03:03:19;;;;;;;10.52;0.77;;;;;;;2.04;56.63;100595.06;4996540;28;20440;-80
2022/02/18 03:05:53;;;;;;;13.07;1.08;;;;;;;2.31;55.62;100588.78;4980101;28;20081;-80
2022/02/18 03:08:19;;;;;;;10.98;1.20;;;;;;;2.04;56.88;100596.78;4980146;28;20038;-79
2022/02/18 03:11:14;;;;;;;13.18;0.80;;;;;;;1.72;56.98;100603.91;4985967;28;20038;-79
2022/02/18 03:13:34;;;;;;;8.52;1.23;;;;;;;2.19;56.17;100599.22;4987726;28;20041;-81
2022/02/18 03:15:59;;;;;;;15.52;1.15;;;;;;;2.06;56.70;100598.47;4980069;28;20034;-80
2022/02/18 03:18:26;;;;;;;10.48;0.57;;;;;;;1.56;57.68;100588.59;4970220;28;20042;-82
2022/02/18 03:20:56;;;;;;;6.85;1.02;;;;;;;1.86;56.99;100592.63;4980039;28;20045;-78
2022/02/18 03:23:21;;;;;;;4.78;1.13;;;;;;;2.21;56.09;100589.75;5007308;28;20034;-82
2022/02/18 03:25:47;;;;;;;25.80;1.60;;;;;;;1.92;56.57;100598.59;4976743;28;20046;-81
2022/02/18 03:28:13;;;;;;;21.48;1.38;;;;;;;1.32;58.74;100590.41;4977414;28;20104;-79
2022/02/18 03:30:39;;;;;;;9.25;1.33;;;;;;;2.06;56.86;100587.31;4963681;28;20030;-79
2022/02/18 03:33:05;;;;;;;19.98;1.08;;;;;;;2.43;55.56;100589.53;4976271;28;20129;-80
2022/02/18 03:35:31;;;;;;;8.25;1.38;;;;;;;2.25;55.99;100581.09;4987495;28;20116;-76
2022/02/18 03:38:00;;;;;;;17.75;1.35;;;;;;;2.32;55.93;100576.75;4979583;28;20328;-78
2022/02/18 03:40:32;;;;;;;32.25;2.50;;;;;;;2.08;56.66;100585.56;4990439;28;20076;-79
2022/02/18 03:42:58;;;;;;;19.83;0.88;;;;;;;2.06;56.37;100588.16;4972484;28;20500;-82
2022/02/18 03:45:28;;;;;;;11.77;1.15;;;;;;;2.36;55.54;100586.16;4988568;28;20430;-82
2022/02/18 03:47:55;;;;;;;9.77;1.05;;;;;;;2.58;54.87;100579.03;4982688;28;20395;-79
2022/02/18 03:50:22;;;;;;;4.53;0.70;;;;;;;2.05;56.40;100591.59;4983524;28;20061;-79
2022/02/18 03:52:51;;;;;;;14.73;1.10;;;;;;;2.07;56.63;100595.03;4979968;28;20107;-80
2022/02/18 03:55:19;;;;;;;9.20;0.55;;;;;;;2.51;55.49;100579.97;4987449;28;20034;-82
2022/02/18 03:57:48;;;;;;;6.07;0.65;;;;;;;2.48;55.50;100575.69;4992233;28;20042;-81
2022/02/18 04:00:16;;;;;;;17.88;1.35;;;;;;;2.23;56.02;100572.53;4984543;28;20121;-81
2022/02/18 04:02:45;;;;;;;12.80;1.17;;;;;;;2.27;56.06;100571.63;5005455;28;20047;-80
2022/02/18 04:05:29;;;;;;;9.68;1.08;;;;;;;2.26;56.23;100566.47;4986211;28;20044;-78
2022/02/18 04:08:04;;;;;;;10.60;0.98;;;;;;;2.44;55.44;100562.84;5002246;28;20069;-79
2022/02/18 04:10:31;;;;;;;12.40;0.60;;;;;;;2.59;54.81;100561.81;4977080;28;20503;-78
2022/02/18 04:12:57;;;;;;;15.05;1.13;;;;;;;2.43;55.44;100566.31;4969254;28;20104;-79
2022/02/18 04:15:23;;;;;;;6.90;0.40;;;;;;;2.53;55.10;100560.16;4980638;28;20143;-80
2022/02/18 04:17:49;;;;;;;9.13;1.17;;;;;;;2.35;55.41;100556.06;4993518;28;20054;-78
2022/02/18 04:20:23;;;;;;;7.28;0.90;;;;;;;2.35;55.30;100554.34;4978798;28;20642;-81
2022/02/18 04:22:55;;;;;;;16.58;0.80;;;;;;;2.48;55.05;100554.22;4983264;28;20048;-83
2022/02/18 04:25:27;;;;;;;9.80;1.30;;;;;;;2.44;55.11;100553.38;4983803;28;20080;-80
2022/02/18 04:27:57;;;;;;;10.63;1.08;;;;;;;2.64;54.57;100547.97;4980152;28;20077;-82
2022/02/18 04:30:23;;;;;;;8.13;1.17;;;;;;;2.79;54.31;100546.09;4983738;28;20536;-79
2022/02/18 04:32:50;;;;;;;14.30;0.60;;;;;;;2.63;54.61;100538.56;4979835;28;20126;-78
2022/02/18 04:35:15;;;;;;;4.85;1.05;;;;;;;2.19;55.90;100541.63;4985997;28;20392;-81
2022/02/18 04:37:42;;;;;;;10.20;1.48;;;;;;;2.43;54.87;100543.09;4981905;28;20046;-81
2022/02/18 04:40:09;;;;;;;8.82;0.50;;;;;;;2.67;54.44;100540.22;4982427;28;20503;-82
2022/02/18 04:42:34;;;;;;;12.48;1.10;;;;;;;2.53;54.37;100527.50;4961670;28;20042;-81
2022/02/18 04:45:00;;;;;;;9.85;1.42;;;;;;;2.75;54.15;100530.63;4980502;28;20026;-79
2022/02/18 04:47:25;;;;;;;11.52;1.08;;;;;;;2.59;54.25;100516.22;4979300;28;20432;-82
2022/02/18 04:49:51;;;;;;;12.70;0.88;;;;;;;2.69;53.98;100511.78;4981219;28;20044;-82
2022/02/18 04:52:17;;;;;;;11.40;1.02;;;;;;;2.73;53.72;100508.31;4989697;28;20037;-79
2022/02/18 04:54:43;;;;;;;3.28;0.52;;;;;;;2.73;53.82;100498.88;4982823;28;20033;-81
2022/02/18 04:57:09;;;;;;;11.60;0.70;;;;;;;1.91;56.21;100504.09;4979918;28;20045;-78
2022/02/18 04:59:34;;;;;;;10.35;1.05;;;;;;;2.17;55.74;100508.13;5007829;28;20034;-82
2022/02/18 05:02:00;;;;;;;10.98;1.38;;;;;;;2.36;55.09;100503.63;4980654;28;20033;-81
2022/02/18 05:04:26;;;;;;;12.60;1.02;;;;;;;2.51;54.58;100492.25;4979476;28;20037;-81
2022/02/18 05:06:52;;;;;;;10.25;1.02;;;;;;;2.40;55.23;100496.69;4982045;28;20338;-80
2022/02/18 05:09:17;;;;;;;4.18;0.68;;;;;;;2.39;55.15;100500.16;4983364;28;20046;-80
2022/02/18 05:11:43;;;;;;;8.90;0.80;;;;;;;2.41;54.80;100490.66;4992901;28;20034;-80
2022/02/18 05:14:08;;;;;;;7.53;0.65;;;;;;;2.08;56.20;100488.44;4980368;28;20038;-81
2022/02/18 05:16:34;;;;;;;11.85;1.10;;;;;;;2.21;55.80;100473.69;4980620;28;20113;-79
2022/02/18 05:19:02;;;;;;;9.52;1.27;;;;;;;2.08;56.00;100472.13;4973566;28;20042;-80
2022/02/18 05:21:28;;;;;;;4.32;0.73;;;;;;;1.92;56.86;100467.13;4976733;28;20045;-82
2022/02/18 05:23:53;;;;;;;3.03;0.55;;;;;;;2.22;55.84;100459.94;4980695;28;20046;-78
2022/02/18 05:26:19;;;;;;;10.43;2.03;;;;;;;2.33;55.49;100452.06;4978941;28;20069;-81
2022/02/18 05:28:44;;;;;;;9.02;0.82;;;;;;;2.27;55.92;100444.41;4983017;28;20400;-80
2022/02/18 05:31:10;;;;;;;14.13;0.77;;;;;;;2.12;55.77;100437.72;4995014;28;20022;-79
2022/02/18 05:33:36;;;;;;;6.43;1.02;;;;;;;2.44;55.31;100431.28;4964180;28;20720;-79
2022/02/18 05:36:02;;;;;;;9.00;2.10;;;;;;;2.58;54.96;100431.97;4979288;28;20029;-81
2022/02/18 05:38:29;;;;;;;4.95;0.35;;;;;;;2.69;54.58;100416.31;4979764;28;20042;-80
2022/02/18 05:40:58;;;;;;;5.88;0.50;;;;;;;2.82;54.21;100410.09;4982385;28;20494;-78
2022/02/18 05:43:24;;;;;;;7.78;0.98;;;;;;;2.72;53.84;100404.22;4981123;28;20033;-79
2022/02/18 05:45:49;;;;;;;5.35;0.50;;;;;;;2.75;53.95;100403.31;5001480;28;20058;-80
2022/02/18 05:48:15;;;;;;;7.60;0.47;;;;;;;2.65;54.11;100392.31;4976942;28;20500;-80
2022/02/18 05:50:40;;;;;;;7.32;1.58;;;;;;;2.61;54.54;100388.06;4990036;28;20030;-81
2022/02/18 05:53:06;;;;;;;6.03;0.43;;;;;;;2.72;54.34;100368.09;5000283;28;20042;-81
2022/02/18 05:55:32;;;;;;;7.72;0.60;;;;;;;2.61;54.63;100364.84;4982327;28;20048;-81
2022/02/18 05:57:57;;;;;;;9.18;1.20;;;;;;;2.22;55.39;100367.13;4973021;28;20053;-78
2022/02/18 06:00:23;;;;;;;11.18;0.77;;;;;;;2.66;54.69;100367.34;4988538;28;20499;-80
2022/02/18 06:02:48;;;;;;;11.80;0.57;;;;;;;2.58;54.54;100357.16;4998539;28;20039;-79
2022/02/18 06:05:14;;;;;;;7.57;0.80;;;;;;;2.65;54.38;100355.34;4988511;28;20038;-79
2022/02/18 06:07:46;;;;;;;9.40;0.82;;;;;;;2.71;54.53;100356.09;4980398;28;20497;-79
2022/02/18 06:10:11;;;;;;;;;;;;;;;2.67;54.56;100349.28;4977027;28;20049;-81
2022/02/18 06:12:37;;;;;;;8.27;0.77;;;;;;;2.71;54.32;100335.44;4979892;28;19921;-81
2022/02/18 06:15:02;;;;;;;5.07;0.95;;;;;;;2.81;54.47;100325.81;4976531;28;20045;-77
2022/02/18 06:17:28;;;;;;;3.90;0.70;;;;;;;2.88;53.82;100326.56;5006013;28;20383;-79
2022/02/18 06:19:56;;;;;;;8.93;0.50;;;;;;;2.66;54.49;100326.06;4990975;28;20484;-79
2022/02/18 06:22:22;;;;;;;4.00;0.30;;;;;;;2.35;55.46;100318.78;4997169;28;20064;-80
2022/02/18 06:24:47;;;;;;;15.70;0.80;;;;;;;2.56;54.82;100320.19;4974952;28;20527;-79
2022/02/18 06:27:13;;;;;;;7.95;0.70;;;;;;;2.62;54.79;100309.75;4978403;28;20045;-80
2022/02/18 06:29:39;;;;;;;6.45;0.50;;;;;;;3.00;53.52;100310.00;4979239;28;20049;-77
2022/02/18 06:32:08;;;;;;;7.93;0.50;;;;;;;2.76;53.94;100301.81;4979515;28;20046;-81
2022/02/18 06:34:34;;;;;;;1.92;0.73;;;;;;;2.85;53.92;100293.06;4986933;28;20155;-79
2022/02/18 06:37:00;;;;;;;7.90;1.13;;;;;;;2.92;53.83;100289.50;4979439;28;20394;-81
2022/02/18 06:39:25;;;;;;;10.77;0.63;;;;;;;2.90;53.65;100288.66;4982066;28;20391;-79
2022/02/18 06:41:51;;;;;;;6.97;0.98;;;;;;;2.56;54.43;100284.09;4987538;28;20044;-77
2022/02/18 06:44:16;;;;;;;6.75;0.70;;;;;;;2.84;54.18;100288.78;4984268;28;20030;-77
2022/02/18 06:46:42;;;;;;;4.32;0.45;;;;;;;2.50;54.64;100273.84;5004509;28;20135;-79
2022/02/18 06:49:08;;;;;;;8.45;1.00;;;;;;;2.87;54.00;100274.09;4999751;28;20042;-81
2022/02/18 06:51:34;;;;;;;3.00;1.15;;;;;;;2.90;54.13;100270.59;5002071;28;20033;-79
2022/02/18 06:54:00;;;;;;;5.10;0.35;;;;;;;2.52;55.08;100269.53;4995192;28;20045;-79
2022/02/18 06:56:26;;;;;;;5.30;0.70;;;;;;;2.65;55.06;100272.75;4963655;28;20026;-76
2022/02/18 06:58:54;;;;;;;6.20;1.05;;;;;;;2.59;55.12;100265.97;4982021;28;20044;-79
2022/02/18 07:01:20;;;;;;;3.78;0.55;;;;;;;2.49;56.00;100254.94;4983322;28;20049;-79
2022/02/18 07:03:46;;;;;;;5.25;0.70;;;;;;;2.73;55.16;100248.53;4977516;28;20053;-80
2022/02/18 07:06:11;;;;;;;5.53;0.55;;;;;;;2.13;57.30;100252.06;5004323;28;20116;-79
2022/02/18 07:08:37;;;;;;;7.90;1.05;;;;;;;2.55;56.41;100238.50;4991911;28;20087;-81
2022/02/18 07:11:03;;;;;;;7.57;1.13;;;;;;;2.24;57.57;100231.28;4984575;28;20047;-80
2022/02/18 07:13:29;;;;;;;3.63;1.02;;;;;;;2.52;56.78;100221.34;4968417;28;20050;-79
2022/02/18 07:15:55;;;;;;;5.30;0.82;;;;;;;2.70;56.73;100220.19;4986778;28;20037;-77
2022/02/18 07:18:22;;;;;;;9.95;1.45;;;;;;;2.42;57.78;100208.63;5008115;28;20044;-78
2022/02/18 07:20:47;;;;;;;14.45;1.70;;;;;;;2.67;56.91;100189.28;4976716;28;20045;-80
2022/02/18 07:23:13;;;;;;;5.75;0.98;;;;;;;2.73;57.50;100181.44;4994059;28;20042;-80
2022/02/18 07:25:39;;;;;;;11.00;1.60;;;;;;;2.49;58.03;100185.31;4980651;28;20121;-77
2022/02/18 07:28:05;;;;;;;11.07;1.58;;;;;;;2.56;57.93;100167.97;4965495;28;20068;-80
2022/02/18 07:30:30;;;;;;;8.23;1.77;;;;;;;2.85;57.24;100156.28;4980844;28;20333;-78
2022/02/18 07:32:56;;;;;;;8.27;1.10;;;;;;;2.54;58.26;100141.38;4988005;28;20044;-80
2022/02/18 07:35:23;;;;;;;11.60;2.67;;;;;;;2.79;57.79;100131.41;4995999;28;20035;-79
2022/02/18 07:37:50;;;;;;;12.18;1.52;;;;;;;2.80;57.93;100129.69;4993061;28;20583;-80
2022/02/18 07:40:16;;;;;;;8.13;1.13;;;;;;;2.84;57.23;100105.50;5000265;28;20056;-79
2022/02/18 07:42:43;;;;;;;5.78;1.63;;;;;;;2.93;57.40;100067.44;4994281;28;20045;-81
2022/02/18 07:45:11;;;;;;;9.45;2.05;;;;;;;2.93;57.34;100040.78;4992788;28;20311;-78
2022/02/18 07:47:36;;;;;;;8.73;1.52;;;;;;;3.09;56.98;100025.81;4981740;28;20069;-81
2022/02/18 07:50:06;;;;;;;5.50;1.38;;;;;;;3.11;56.69;100012.00;4986595;28;20468;-80
2022/02/18 07:52:32;;;;;;;10.43;1.75;;;;;;;2.87;57.48;100025.47;5001738;28;20128;-81
2022/02/18 07:54:58;;;;;;;11.80;1.17;;;;;;;2.90;57.43;100009.91;4989215;28;20094;-80
2022/02/18 07:57:24;;;;;;;5.28;1.20;;;;;;;2.72;58.08;100000.81;4974382;28;20374;-80
2022/02/18 07:59:50;;;;;;;23.13;1.45;;;;;;;2.93;57.58;100004.66;4999896;28;20056;-80
2022/02/18 08:02:16;;;;;;;10.10;1.17;;;;;;;2.85;57.73;99981.63;4982944;28;20405;-78
2022/02/18 08:04:43;;;;;;;11.52;1.35;;;;;;;2.87;57.60;99973.84;4974869;28;20041;-82
2022/02/18 08:07:09;;;;;;;8.30;1.27;;;;;;;2.89;57.84;99957.44;4977630;28;20042;-79
2022/02/18 08:09:35;;;;;;;5.82;1.10;;;;;;;2.80;58.20;99946.44;4974843;28;20506;-82
2022/02/18 08:12:01;;;;;;;19.85;2.13;;;;;;;2.76;58.22;99925.88;4999561;28;20057;-80
2022/02/18 08:14:26;;;;;;;7.78;1.10;;;;;;;2.82;58.02;99909.41;4974353;28;20035;-80
2022/02/18 08:16:52;;;;;;;11.38;1.30;;;;;;;2.73;58.67;99899.28;4987839;28;20037;-79
2022/02/18 08:19:20;;;;;;;8.77;2.05;;;;;;;2.76;58.13;99888.91;4985840;28;20059;-79
2022/02/18 08:22:13;;;;;;;9.63;1.67;;;;;;;2.43;59.13;99881.06;4990616;28;20066;-78
2022/02/18 08:24:51;;;;;;;;;;;;;;;2.64;58.47;99865.97;4981160;28;20074;-79
2022/02/18 08:27:24;;;;;;;14.35;1.58;;;;;;;2.60;59.21;99856.59;4930239;28;20077;-81
2022/02/18 08:30:15;;;;;;;6.40;1.25;;;;;;;2.50;59.30;99854.22;4983320;28;20045;-82
2022/02/18 08:33:44;;;;;;;11.23;0.88;;;;;;;2.54;59.38;99834.38;4968260;28;20508;-81
2022/02/18 08:37:19;;;;;;;11.45;1.27;;;;;;;2.66;59.04;99828.91;4936275;28;20406;-79
2022/02/18 08:39:45;;;;;;;10.45;3.85;;;;;;;2.46;59.44;99823.38;4978007;28;20039;-76
2022/02/18 08:42:11;;;;;;;10.27;1.00;;;;;;;2.50;59.22;99825.03;4959866;28;20047;-79
2022/02/18 08:44:37;;;;;;;14.40;2.10;;;;;;;2.78;58.56;99814.91;4952068;28;20098;-78
2022/02/18 08:47:03;;;;;;;4.20;0.88;;;;;;;2.74;59.03;99806.38;4959624;28;20073;-79
2022/02/18 08:49:29;;;;;;;6.70;1.00;;;;;;;2.80;58.65;99807.09;4989954;28;20254;-79
2022/02/18 08:51:56;;;;;;;10.43;1.08;;;;;;;2.45;60.02;99790.75;5004833;28;20094;-80
2022/02/18 08:54:21;;;;;;;8.98;1.00;;;;;;;2.67;59.14;99789.34;4978720;28;20601;-79
2022/02/18 08:56:48;;;;;;;5.07;1.00;;;;;;;2.39;59.98;99775.41;4983790;28;20045;-79
2022/02/18 08:59:14;;;;;;;4.63;1.25;;;;;;;2.41;59.80;99758.19;4993399;28;20090;-79
2022/02/18 09:01:40;;;;;;;8.25;1.05;;;;;;;2.57;59.64;99744.84;4983420;28;20046;-79
2022/02/18 09:04:05;;;;;;;11.85;2.33;;;;;;;2.56;59.75;99732.84;4978764;28;20046;-79
2022/02/18 09:06:32;;;;;;;5.97;1.67;;;;;;;2.31;60.73;99724.88;4976619;28;20539;-76
2022/02/18 09:08:58;;;;;;;8.82;2.33;;;;;;;2.38;60.55;99712.69;4961228;28;20129;-80
2022/02/18 09:11:23;;;;;;;9.18;2.10;;;;;;;2.35;60.58;99698.13;4982625;28;20121;-81
2022/02/18 09:13:49;;;;;;;11.27;1.58;;;;;;;2.07;61.77;99677.31;4977824;28;20546;-79
2022/02/18 09:16:15;;;;;;;7.10;2.40;;;;;;;2.40;60.80;99673.94;4978128;28;20041;-79
2022/02/18 09:18:46;;;;;;;13.43;2.72;;;;;;;2.05;62.01;99660.22;4994037;28;20153;-80
2022/02/18 09:21:11;;;;;;;10.45;2.50;;;;;;;2.44;61.30;99655.78;4999613;28;20121;-76
2022/02/18 09:23:37;;;;;;;10.95;2.83;;;;;;;2.40;61.28;99638.72;4977263;28;20567;-79
2022/02/18 09:26:03;;;;;;;9.15;3.05;;;;;;;2.32;61.88;99620.00;4973830;28;20453;-77
2022/02/18 09:28:29;;;;;;;9.32;3.03;;;;;;;2.54;61.43;99599.66;4973841;28;20092;-78
2022/02/18 09:30:56;;;;;;;16.52;5.40;;;;;;;2.35;61.76;99588.97;4975558;28;20129;-79
2022/02/18 09:33:22;;;;;;;12.32;4.88;;;;;;;2.49;61.70;99589.47;4972897;28;20042;-77
2022/02/18 09:35:48;;;;;;;24.27;6.35;;;;;;;2.39;62.46;99564.78;4976255;28;20526;-79
2022/02/18 09:38:15;;;;;;;19.52;6.38;;;;;;;2.69;61.40;99546.75;4988397;28;20055;-78
2022/02/18 09:40:41;;;;;;;15.10;6.63;;;;;;;2.75;61.37;99531.97;4958649;28;20332;-80
2022/02/18 09:43:07;;;;;;;17.85;6.95;;;;;;;2.47;62.41;99515.59;4995865;28;20045;-80
2022/02/18 09:45:34;;;;;;;17.23;7.10;;;;;;;2.73;61.65;99495.06;4980745;28;20139;-79
2022/02/18 09:48:01;;;;;;;24.90;7.35;;;;;;;2.71;61.92;99499.41;4995492;28;20057;-78
2022/02/18 09:50:27;;;;;;;23.48;7.40;;;;;;;2.82;61.63;99462.94;4988029;28;20033;-80
2022/02/18 09:52:53;;;;;;;23.38;8.60;;;;;;;2.83;61.71;99445.75;4972617;28;20120;-80
2022/02/18 09:55:19;;;;;;;16.42;7.20;;;;;;;2.93;61.99;99436.81;4984370;28;20125;-79
2022/02/18 09:57:48;;;;;;;18.88;6.82;;;;;;;2.83;61.73;99431.09;4985473;28;20045;-82
2022/02/18 10:00:14;;;;;;;15.85;6.80;;;;;;;2.53;62.98;99417.38;4986824;28;20054;-81
2022/02/18 10:02:42;;;;;;;19.20;7.43;;;;;;;2.52;63.24;99413.13;4985999;28;20408;-80
2022/02/18 10:05:08;;;;;;;26.08;7.10;;;;;;;3.11;61.52;99400.13;4982073;28;20045;-78
2022/02/18 10:08:05;;;;;;;19.92;7.40;;;;;;;3.04;61.72;99377.94;5003696;28;20064;-79
2022/02/18 10:10:32;;;;;;;14.23;6.80;;;;;;;2.55;62.92;99357.16;4969723;28;20033;-78
2022/02/18 10:12:58;;;;;;;13.10;6.20;;;;;;;2.85;62.57;99358.81;4986142;28;20485;-78
2022/02/18 10:15:24;;;;;;;16.10;7.05;;;;;;;2.80;62.86;99368.41;4973963;28;20076;-78
2022/02/18 10:17:50;;;;;;;16.40;7.85;;;;;;;2.96;62.26;99354.16;4986969;28;20037;-77
2022/02/18 10:20:24;;;;;;;14.52;6.35;;;;;;;2.97;62.20;99320.53;5003700;28;20030;-77
2022/02/18 10:23:09;;;;;;;13.45;6.03;;;;;;;3.02;62.33;99320.38;5001117;28;20527;-79
2022/02/18 10:25:35;;;;;;;13.32;5.43;;;;;;;2.83;62.91;99329.63;4972528;28;20217;-80
2022/02/18 10:28:04;;;;;;;17.27;5.05;;;;;;;2.72;63.41;99311.91;4968430;28;20038;-78
2022/02/18 10:30:31;;;;;;;15.50;5.22;;;;;;;3.18;62.18;99300.91;4991357;28;20054;-78
2022/02/18 10:33:08;;;;;;;9.05;4.18;;;;;;;3.09;62.74;99293.47;4985556;28;20069;-79
2022/02/18 10:35:35;;;;;;;17.80;5.80;;;;;;;3.12;62.45;99267.53;4963956;28;20026;-79
2022/02/18 10:38:02;;;;;;;10.65;6.45;;;;;;;3.16;62.21;99232.97;4980122;28;20099;-79
2022/02/18 10:40:28;;;;;;;13.50;5.38;;;;;;;3.23;62.89;99249.09;4999036;28;20045;-81
2022/02/18 10:42:55;;;;;;;5.78;4.07;;;;;;;2.81;63.95;99225.63;4979112;28;20038;-81
2022/02/18 10:45:23;;;;;;;15.32;5.10;;;;;;;3.23;62.84;99222.44;4981160;28;20403;-81
2022/02/18 10:48:04;;;;;;;9.98;4.50;;;;;;;3.21;63.40;99211.31;4985102;28;20046;-80
2022/02/18 10:50:30;;;;;;;14.90;4.82;;;;;;;3.18;63.45;99202.78;4984394;28;20061;-82
2022/02/18 10:53:09;;;;;;;9.65;4.80;;;;;;;3.22;64.11;99184.59;4985689;28;20124;-81
2022/02/18 10:59:43;;;;;;;7.93;3.15;;;;;;;3.65;62.69;99146.84;5004053;28;20148;-79
2022/02/18 11:02:09;;;;;;;7.90;3.55;;;;;;;3.44;63.64;99139.03;4990557;28;20048;-78
2022/02/18 11:04:35;;;;;;;8.27;3.47;;;;;;;3.48;63.84;99121.69;4987660;28;20033;-78
2022/02/18 11:07:11;;;;;;;7.82;3.72;;;;;;;3.58;63.87;99100.59;4973432;28;20033;-80
2022/02/18 11:09:38;;;;;;;6.15;2.97;;;;;;;3.61;64.47;99098.81;5006336;28;20037;-82
2022/02/18 11:12:12;;;;;;;13.20;3.90;;;;;;;3.50;64.71;99084.53;4990151;28;20061;-82
2022/02/18 11:14:47;;;;;;;9.50;3.22;;;;;;;4.12;63.37;99069.97;4987362;28;20038;-78
2022/02/18 11:17:14;;;;;;;9.70;3.90;;;;;;;3.94;64.08;99040.56;5007317;28;20487;-79
2022/02/18 11:19:44;;;;;;;12.52;3.60;;;;;;;4.11;63.70;99020.91;4982132;28;20042;-78
2022/02/18 11:22:10;;;;;;;7.30;3.33;;;;;;;4.30;63.32;99032.16;4979819;28;20149;-80
2022/02/18 11:24:38;;;;;;;6.72;3.22;;;;;;;4.51;63.38;99009.66;5003947;28;20126;-81
2022/02/18 11:27:04;;;;;;;10.05;4.38;;;;;;;4.01;64.20;99005.78;4965737;28;20410;-80
2022/02/18 11:29:35;;;;;;;13.35;4.07;;;;;;;3.98;64.58;99000.78;4983040;28;20515;-79
2022/02/18 11:32:04;;;;;;;6.93;3.22;;;;;;;3.99;64.72;99002.44;4966544;28;20038;-82
2022/02/18 11:34:53;;;;;;;10.10;4.97;;;;;;;4.35;63.69;98978.47;4990143;28;20041;-81
2022/02/18 11:37:28;;;;;;;12.55;4.93;;;;;;;3.82;66.17;98973.88;4970228;28;20038;-80
2022/02/18 11:40:39;;;;;;;7.88;4.70;;;;;;;4.17;64.93;98945.66;5006613;28;20539;-80